sensor_id;sensor_type;location;lat;lon;timestamp;pressure;altitude;pressure_sealevel;temperature;humidity
6144;BME280;3103;49.492;8.474;2024-01-07T00:00:48;100051.50;;;6.80;88.73
6144;BME280;3103;49.492;8.474;2024-01-07T00:03:15;100059.44;;;6.87;88.12
6144;BME280;3103;49.492;8.474;2024-01-07T00:05:43;100057.81;;;6.85;88.60
6144;BME280;3103;49.492;8.474;2024-01-07T00:08:10;100055.28;;;6.91;88.15
6144;BME280;3103;49.492;8.474;2024-01-07T00:10:37;100063.34;;;7.02;88.17
6144;BME280;3103;49.492;8.474;2024-01-07T00:13:03;100066.09;;;6.96;87.75
6144;BME280;3103;49.492;8.474;2024-01-07T00:15:30;100064.56;;;6.70;89.32
6144;BME280;3103;49.492;8.474;2024-01-07T00:17:58;100066.56;;;6.74;89.63
6144;BME280;3103;49.492;8.474;2024-01-07T00:20:25;100070.19;;;6.98;88.40
6144;BME280;3103;49.492;8.474;2024-01-07T00:22:51;100076.28;;;7.05;87.84
6144;BME280;3103;49.492;8.474;2024-01-07T00:25:18;100077.50;;;7.03;87.51
6144;BME280;3103;49.492;8.474;2024-01-07T00:27:45;100076.84;;;7.07;87.17
6144;BME280;3103;49.492;8.474;2024-01-07T00:30:12;100071.34;;;7.02;87.17
6144;BME280;3103;49.492;8.474;2024-01-07T00:32:39;100081.44;;;7.00;87.17
6144;BME280;3103;49.492;8.474;2024-01-07T00:35:06;100072.56;;;7.06;86.86
6144;BME280;3103;49.492;8.474;2024-01-07T00:37:33;100081.00;;;7.03;87.42
6144;BME280;3103;49.492;8.474;2024-01-07T00:40:01;100084.06;;;7.07;86.46
6144;BME280;3103;49.492;8.474;2024-01-07T00:42:30;100083.88;;;7.02;87.41
6144;BME280;3103;49.492;8.474;2024-01-07T00:44:57;100088.34;;;7.08;86.80
6144;BME280;3103;49.492;8.474;2024-01-07T00:47:24;100084.50;;;7.04;87.38
6144;BME280;3103;49.492;8.474;2024-01-07T00:49:51;100084.72;;;7.02;87.69
6144;BME280;3103;49.492;8.474;2024-01-07T00:52:18;100084.78;;;7.14;86.51
6144;BME280;3103;49.492;8.474;2024-01-07T00:54:45;100091.84;;;7.08;86.72
6144;BME280;3103;49.492;8.474;2024-01-07T00:57:11;100087.31;;;7.09;85.95
6144;BME280;3103;49.492;8.474;2024-01-07T00:59:41;100089.19;;;6.90;87.34
6144;BME280;3103;49.492;8.474;2024-01-07T01:02:08;100092.53;;;7.04;87.37
6144;BME280;3103;49.492;8.474;2024-01-07T01:04:38;100091.25;;;7.06;87.13
6144;BME280;3103;49.492;8.474;2024-01-07T01:07:06;100098.97;;;6.96;86.85
6144;BME280;3103;49.492;8.474;2024-01-07T01:09:34;100104.75;;;6.75;87.30
6144;BME280;3103;49.492;8.474;2024-01-07T01:12:01;100101.25;;;6.74;87.09
6144;BME280;3103;49.492;8.474;2024-01-07T01:14:28;100096.97;;;6.73;87.39
6144;BME280;3103;49.492;8.474;2024-01-07T01:16:55;100109.66;;;6.96;86.74
6144;BME280;3103;49.492;8.474;2024-01-07T01:19:21;100099.03;;;6.90;85.98
6144;BME280;3103;49.492;8.474;2024-01-07T01:21:49;100104.25;;;6.84;87.00
6144;BME280;3103;49.492;8.474;2024-01-07T01:24:16;100103.56;;;6.89;86.38
6144;BME280;3103;49.492;8.474;2024-01-07T01:26:43;100109.91;;;6.76;87.07
6144;BME280;3103;49.492;8.474;2024-01-07T01:29:09;100108.00;;;6.59;88.14
6144;BME280;3103;49.492;8.474;2024-01-07T01:31:36;100108.00;;;6.59;88.83
6144;BME280;3103;49.492;8.474;2024-01-07T01:34:03;100107.63;;;6.73;87.11
6144;BME280;3103;49.492;8.474;2024-01-07T01:36:31;100106.00;;;6.72;87.01
6144;BME280;3103;49.492;8.474;2024-01-07T01:38:58;100116.47;;;6.74;87.16
6144;BME280;3103;49.492;8.474;2024-01-07T01:41:25;100115.22;;;6.76;86.63
6144;BME280;3103;49.492;8.474;2024-01-07T01:43:57;100115.06;;;6.71;86.40
6144;BME280;3103;49.492;8.474;2024-01-07T01:46:24;100120.94;;;6.62;87.06
6144;BME280;3103;49.492;8.474;2024-01-07T01:48:51;100119.22;;;6.24;87.83
6144;BME280;3103;49.492;8.474;2024-01-07T01:51:18;100123.22;;;6.58;87.35
6144;BME280;3103;49.492;8.474;2024-01-07T01:53:45;100121.22;;;6.53;87.79
6144;BME280;3103;49.492;8.474;2024-01-07T01:56:13;100126.41;;;6.67;87.70
6144;BME280;3103;49.492;8.474;2024-01-07T01:58:40;100121.44;;;6.70;86.35
6144;BME280;3103;49.492;8.474;2024-01-07T02:01:07;100125.28;;;6.56;87.21
6144;BME280;3103;49.492;8.474;2024-01-07T02:03:34;100123.50;;;6.50;87.26
6144;BME280;3103;49.492;8.474;2024-01-07T02:06:01;100125.38;;;6.68;86.47
6144;BME280;3103;49.492;8.474;2024-01-07T02:08:29;100124.84;;;6.59;86.62
6144;BME280;3103;49.492;8.474;2024-01-07T02:10:56;100125.06;;;6.58;86.60
6144;BME280;3103;49.492;8.474;2024-01-07T02:13:23;100119.56;;;6.52;86.43
6144;BME280;3103;49.492;8.474;2024-01-07T02:15:51;100131.81;;;6.60;87.12
6144;BME280;3103;49.492;8.474;2024-01-07T02:18:18;100121.34;;;6.59;86.11
6144;BME280;3103;49.492;8.474;2024-01-07T02:20:45;100118.59;;;6.47;87.48
6144;BME280;3103;49.492;8.474;2024-01-07T02:23:12;100126.09;;;6.57;87.31
6144;BME280;3103;49.492;8.474;2024-01-07T02:25:39;100127.50;;;6.59;86.80
6144;BME280;3103;49.492;8.474;2024-01-07T02:28:06;100131.97;;;6.65;86.13
6144;BME280;3103;49.492;8.474;2024-01-07T02:30:33;100126.41;;;6.67;85.60
6144;BME280;3103;49.492;8.474;2024-01-07T02:33:01;100127.34;;;6.54;87.80
6144;BME280;3103;49.492;8.474;2024-01-07T02:35:30;100121.13;;;6.60;86.96
6144;BME280;3103;49.492;8.474;2024-01-07T02:37:56;100130.94;;;6.66;86.35
6144;BME280;3103;49.492;8.474;2024-01-07T02:40:23;100136.50;;;6.65;86.53
6144;BME280;3103;49.492;8.474;2024-01-07T02:42:50;100130.19;;;6.59;86.93
6144;BME280;3103;49.492;8.474;2024-01-07T02:45:17;100130.38;;;6.39;88.44
6144;BME280;3103;49.492;8.474;2024-01-07T02:47:44;100125.50;;;6.54;88.22
6144;BME280;3103;49.492;8.474;2024-01-07T02:50:11;100128.63;;;6.51;88.20
6144;BME280;3103;49.492;8.474;2024-01-07T02:52:38;100127.13;;;6.55;88.53
6144;BME280;3103;49.492;8.474;2024-01-07T02:55:05;100130.25;;;6.52;88.51
6144;BME280;3103;49.492;8.474;2024-01-07T02:57:32;100126.56;;;6.72;88.12
6144;BME280;3103;49.492;8.474;2024-01-07T02:59:59;100137.09;;;6.67;87.92
6144;BME280;3103;49.492;8.474;2024-01-07T03:02:26;100142.44;;;6.67;87.75
6144;BME280;3103;49.492;8.474;2024-01-07T03:04:53;100137.44;;;6.52;88.86
6144;BME280;3103;49.492;8.474;2024-01-07T03:07:19;100133.28;;;6.56;88.28
6144;BME280;3103;49.492;8.474;2024-01-07T03:09:48;100132.97;;;6.46;89.43
6144;BME280;3103;49.492;8.474;2024-01-07T03:12:18;100132.75;;;6.47;89.02
6144;BME280;3103;49.492;8.474;2024-01-07T03:14:45;100123.53;;;6.25;90.45
6144;BME280;3103;49.492;8.474;2024-01-07T03:17:12;100127.47;;;6.41;90.15
6144;BME280;3103;49.492;8.474;2024-01-07T03:19:39;100131.88;;;6.53;89.66
6144;BME280;3103;49.492;8.474;2024-01-07T03:22:07;100140.56;;;6.49;89.95
6144;BME280;3103;49.492;8.474;2024-01-07T03:24:34;100136.84;;;6.50;90.66
6144;BME280;3103;49.492;8.474;2024-01-07T03:27:01;100139.06;;;6.53;90.32
6144;BME280;3103;49.492;8.474;2024-01-07T03:29:28;100140.09;;;6.34;91.48
6144;BME280;3103;49.492;8.474;2024-01-07T03:31:55;100136.44;;;6.46;91.46
6144;BME280;3103;49.492;8.474;2024-01-07T03:34:22;100137.41;;;6.34;91.48
6144;BME280;3103;49.492;8.474;2024-01-07T03:36:49;100149.16;;;6.51;91.61
6144;BME280;3103;49.492;8.474;2024-01-07T03:39:16;100141.53;;;6.54;91.19
6144;BME280;3103;49.492;8.474;2024-01-07T03:41:43;100144.84;;;6.50;91.45
6144;BME280;3103;49.492;8.474;2024-01-07T03:44:09;100144.19;;;6.54;91.24
6144;BME280;3103;49.492;8.474;2024-01-07T03:46:36;100141.66;;;6.60;91.78
6144;BME280;3103;49.492;8.474;2024-01-07T03:49:03;100148.22;;;6.64;91.52
6144;BME280;3103;49.492;8.474;2024-01-07T03:51:30;100150.13;;;6.57;91.82
6144;BME280;3103;49.492;8.474;2024-01-07T03:53:57;100148.22;;;6.64;91.01
6144;BME280;3103;49.492;8.474;2024-01-07T03:56:24;100146.84;;;6.54;90.80
6144;BME280;3103;49.492;8.474;2024-01-07T03:58:51;100155.13;;;6.46;92.13
6144;BME280;3103;49.492;8.474;2024-01-07T04:01:17;100156.81;;;6.66;92.19
6144;BME280;3103;49.492;8.474;2024-01-07T04:03:45;100160.22;;;6.73;91.72
6144;BME280;3103;49.492;8.474;2024-01-07T04:06:12;100159.41;;;6.72;91.35
6144;BME280;3103;49.492;8.474;2024-01-07T04:08:39;100162.53;;;6.69;91.64
6144;BME280;3103;49.492;8.474;2024-01-07T04:11:05;100159.25;;;6.49;90.76
6144;BME280;3103;49.492;8.474;2024-01-07T04:13:32;100162.66;;;6.56;91.45
6144;BME280;3103;49.492;8.474;2024-01-07T04:15:59;100176.06;;;6.49;92.27
6144;BME280;3103;49.492;8.474;2024-01-07T04:18:26;100168.28;;;6.23;91.97
6144;BME280;3103;49.492;8.474;2024-01-07T04:20:53;100168.06;;;6.49;92.57
6144;BME280;3103;49.492;8.474;2024-01-07T04:23:20;100175.88;;;6.44;90.76
6144;BME280;3103;49.492;8.474;2024-01-07T04:25:46;100177.53;;;6.45;92.24
6144;BME280;3103;49.492;8.474;2024-01-07T04:28:13;100182.38;;;6.55;92.37
6144;BME280;3103;49.492;8.474;2024-01-07T04:30:40;100187.00;;;6.41;92.36
6144;BME280;3103;49.492;8.474;2024-01-07T04:33:07;100180.47;;;6.37;92.18
6144;BME280;3103;49.492;8.474;2024-01-07T04:35:34;100177.25;;;6.53;91.97
6144;BME280;3103;49.492;8.474;2024-01-07T04:38:02;100176.78;;;6.63;90.09
6144;BME280;3103;49.492;8.474;2024-01-07T04:40:29;100188.31;;;6.57;90.39
6144;BME280;3103;49.492;8.474;2024-01-07T04:42:55;100181.56;;;6.54;90.81
6144;BME280;3103;49.492;8.474;2024-01-07T04:45:22;100178.56;;;6.44;91.10
6144;BME280;3103;49.492;8.474;2024-01-07T04:47:49;100182.00;;;6.51;90.26
6144;BME280;3103;49.492;8.474;2024-01-07T04:50:16;100183.63;;;6.52;89.39
6144;BME280;3103;49.492;8.474;2024-01-07T04:52:46;100187.56;;;6.50;88.47
6144;BME280;3103;49.492;8.474;2024-01-07T04:55:13;100195.28;;;6.58;89.47
6144;BME280;3103;49.492;8.474;2024-01-07T04:57:40;100192.69;;;6.51;89.22
6144;BME280;3103;49.492;8.474;2024-01-07T05:00:07;100198.72;;;6.40;88.92
6144;BME280;3103;49.492;8.474;2024-01-07T05:02:34;100192.19;;;6.36;88.92
6144;BME280;3103;49.492;8.474;2024-01-07T05:05:01;100200.34;;;6.41;89.23
6144;BME280;3103;49.492;8.474;2024-01-07T05:07:29;100201.97;;;6.42;90.09
6144;BME280;3103;49.492;8.474;2024-01-07T05:09:56;100196.31;;;6.32;89.86
6144;BME280;3103;49.492;8.474;2024-01-07T05:12:23;100205.75;;;6.35;90.04
6144;BME280;3103;49.492;8.474;2024-01-07T05:14:52;100210.06;;;6.36;89.32
6144;BME280;3103;49.492;8.474;2024-01-07T05:17:19;100213.13;;;6.33;88.62
6144;BME280;3103;49.492;8.474;2024-01-07T05:19:45;100219.03;;;6.41;88.54
6144;BME280;3103;49.492;8.474;2024-01-07T05:22:12;100217.78;;;6.44;89.05
6144;BME280;3103;49.492;8.474;2024-01-07T05:24:39;100218.59;;;6.44;88.66
6144;BME280;3103;49.492;8.474;2024-01-07T05:27:06;100219.25;;;6.40;88.52
6144;BME280;3103;49.492;8.474;2024-01-07T05:29:33;100222.16;;;6.38;89.50
6144;BME280;3103;49.492;8.474;2024-01-07T05:32:00;100227.94;;;6.29;89.26
6144;BME280;3103;49.492;8.474;2024-01-07T05:34:28;100224.47;;;6.28;89.18
6144;BME280;3103;49.492;8.474;2024-01-07T05:36:55;100223.28;;;6.24;90.19
6144;BME280;3103;49.492;8.474;2024-01-07T05:39:22;100215.66;;;6.28;90.00
6144;BME280;3103;49.492;8.474;2024-01-07T05:41:49;100216.63;;;6.33;89.10
6144;BME280;3103;49.492;8.474;2024-01-07T05:44:16;100224.44;;;6.35;89.49
6144;BME280;3103;49.492;8.474;2024-01-07T05:46:42;100222.59;;;6.35;89.37
6144;BME280;3103;49.492;8.474;2024-01-07T05:49:09;100229.78;;;6.35;89.98
6144;BME280;3103;49.492;8.474;2024-01-07T05:51:40;100228.97;;;6.34;89.80
6144;BME280;3103;49.492;8.474;2024-01-07T05:54:07;100240.16;;;6.43;89.77
6144;BME280;3103;49.492;8.474;2024-01-07T05:56:39;100240.00;;;6.38;89.93
6144;BME280;3103;49.492;8.474;2024-01-07T05:59:07;100236.53;;;6.37;90.01
6144;BME280;3103;49.492;8.474;2024-01-07T06:01:34;100246.19;;;6.32;90.23
6144;BME280;3103;49.492;8.474;2024-01-07T06:04:02;100251.97;;;6.29;90.74
6144;BME280;3103;49.492;8.474;2024-01-07T06:06:29;100247.88;;;6.26;90.73
6144;BME280;3103;49.492;8.474;2024-01-07T06:08:56;100250.09;;;6.36;91.55
6144;BME280;3103;49.492;8.474;2024-01-07T06:11:23;100247.44;;;6.29;91.01
6144;BME280;3103;49.492;8.474;2024-01-07T06:13:49;100245.31;;;6.13;91.15
6144;BME280;3103;49.492;8.474;2024-01-07T06:16:16;100253.31;;;6.13;92.39
6144;BME280;3103;49.492;8.474;2024-01-07T06:18:43;100255.28;;;6.24;91.96
6144;BME280;3103;49.492;8.474;2024-01-07T06:21:10;100255.72;;;6.21;91.44
6144;BME280;3103;49.492;8.474;2024-01-07T06:23:37;100258.56;;;6.26;92.03
6144;BME280;3103;49.492;8.474;2024-01-07T06:26:04;100260.25;;;6.20;91.66
6144;BME280;3103;49.492;8.474;2024-01-07T06:28:32;100263.06;;;6.25;92.03
6144;BME280;3103;49.492;8.474;2024-01-07T06:31:02;100264.31;;;6.23;92.11
6144;BME280;3103;49.492;8.474;2024-01-07T06:33:29;100264.09;;;6.24;91.27
6144;BME280;3103;49.492;8.474;2024-01-07T06:35:57;100265.16;;;6.23;91.80
6144;BME280;3103;49.492;8.474;2024-01-07T06:38:24;100269.34;;;6.06;91.55
6144;BME280;3103;49.492;8.474;2024-01-07T06:40:51;100278.94;;;6.14;92.50
6144;BME280;3103;49.492;8.474;2024-01-07T06:43:18;100289.53;;;6.27;92.36
6144;BME280;3103;49.492;8.474;2024-01-07T06:45:45;100290.56;;;6.26;91.80
6144;BME280;3103;49.492;8.474;2024-01-07T06:48:12;100286.06;;;6.27;91.61
6144;BME280;3103;49.492;8.474;2024-01-07T06:50:39;100290.19;;;6.22;91.57
6144;BME280;3103;49.492;8.474;2024-01-07T06:53:06;100291.00;;;6.23;92.19
6144;BME280;3103;49.492;8.474;2024-01-07T06:55:33;100293.69;;;6.23;91.58
6144;BME280;3103;49.492;8.474;2024-01-07T06:58:00;100293.53;;;6.11;91.74
6144;BME280;3103;49.492;8.474;2024-01-07T07:00:27;100301.69;;;6.23;91.84
6144;BME280;3103;49.492;8.474;2024-01-07T07:02:55;100300.88;;;6.16;93.15
6144;BME280;3103;49.492;8.474;2024-01-07T07:05:21;100309.47;;;6.24;91.94
6144;BME280;3103;49.492;8.474;2024-01-07T07:07:48;100316.19;;;6.34;91.86
6144;BME280;3103;49.492;8.474;2024-01-07T07:10:19;100321.72;;;6.32;91.91
6144;BME280;3103;49.492;8.474;2024-01-07T07:12:46;100319.72;;;6.28;91.31
6144;BME280;3103;49.492;8.474;2024-01-07T07:15:13;100328.69;;;6.33;91.89
6144;BME280;3103;49.492;8.474;2024-01-07T07:17:40;100330.44;;;6.14;92.62
6144;BME280;3103;49.492;8.474;2024-01-07T07:20:07;100330.81;;;6.24;92.30
6144;BME280;3103;49.492;8.474;2024-01-07T07:22:35;100340.00;;;6.29;91.95
6144;BME280;3103;49.492;8.474;2024-01-07T07:25:01;100337.34;;;6.29;90.73
6144;BME280;3103;49.492;8.474;2024-01-07T07:27:30;100343.13;;;6.25;91.41
6144;BME280;3103;49.492;8.474;2024-01-07T07:29:57;100346.44;;;6.21;92.11
6144;BME280;3103;49.492;8.474;2024-01-07T07:32:24;100348.84;;;6.29;91.30
6144;BME280;3103;49.492;8.474;2024-01-07T07:34:51;100349.44;;;6.31;91.35
6144;BME280;3103;49.492;8.474;2024-01-07T07:37:18;100358.41;;;6.43;91.26
6144;BME280;3103;49.492;8.474;2024-01-07T07:39:47;100360.91;;;6.38;90.53
6144;BME280;3103;49.492;8.474;2024-01-07T07:42:14;100367.50;;;6.36;90.78
6144;BME280;3103;49.492;8.474;2024-01-07T07:44:41;100367.72;;;6.28;91.17
6144;BME280;3103;49.492;8.474;2024-01-07T07:47:08;100366.03;;;6.33;91.16
6144;BME280;3103;49.492;8.474;2024-01-07T07:49:38;100364.00;;;6.35;91.29
6144;BME280;3103;49.492;8.474;2024-01-07T07:52:07;100370.16;;;6.36;91.28
6144;BME280;3103;49.492;8.474;2024-01-07T07:54:37;100369.97;;;6.31;90.89
6144;BME280;3103;49.492;8.474;2024-01-07T07:57:05;100371.81;;;6.30;90.91
6144;BME280;3103;49.492;8.474;2024-01-07T07:59:31;100377.19;;;6.23;90.84
6144;BME280;3103;49.492;8.474;2024-01-07T08:01:58;100385.22;;;6.23;90.93
6144;BME280;3103;49.492;8.474;2024-01-07T08:04:26;100390.50;;;6.30;89.87
6144;BME280;3103;49.492;8.474;2024-01-07T08:06:53;100384.13;;;6.31;90.26
6144;BME280;3103;49.492;8.474;2024-01-07T08:09:23;100385.16;;;6.30;90.48
6144;BME280;3103;49.492;8.474;2024-01-07T08:11:51;100390.72;;;6.29;91.13
6144;BME280;3103;49.492;8.474;2024-01-07T08:14:18;100393.16;;;6.30;90.73
6144;BME280;3103;49.492;8.474;2024-01-07T08:16:45;100395.84;;;6.30;90.10
6144;BME280;3103;49.492;8.474;2024-01-07T08:19:12;100396.47;;;6.25;90.06
6144;BME280;3103;49.492;8.474;2024-01-07T08:21:39;100398.53;;;6.23;90.32
6144;BME280;3103;49.492;8.474;2024-01-07T08:24:07;100409.19;;;6.30;89.08
6144;BME280;3103;49.492;8.474;2024-01-07T08:26:37;100403.50;;;6.20;89.55
6144;BME280;3103;49.492;8.474;2024-01-07T08:29:04;100405.34;;;6.19;88.93
6144;BME280;3103;49.492;8.474;2024-01-07T08:31:31;100396.88;;;6.29;88.85
6144;BME280;3103;49.492;8.474;2024-01-07T08:33:58;100414.56;;;6.17;88.63
6144;BME280;3103;49.492;8.474;2024-01-07T08:36:26;100418.03;;;6.24;88.19
6144;BME280;3103;49.492;8.474;2024-01-07T08:38:53;100410.41;;;6.28;87.91
6144;BME280;3103;49.492;8.474;2024-01-07T08:41:20;100417.00;;;6.25;87.01
6144;BME280;3103;49.492;8.474;2024-01-07T08:43:47;100424.84;;;6.20;87.00
6144;BME280;3103;49.492;8.474;2024-01-07T08:46:14;100426.88;;;6.18;86.02
6144;BME280;3103;49.492;8.474;2024-01-07T08:48:41;100424.41;;;6.16;86.03
6144;BME280;3103;49.492;8.474;2024-01-07T08:51:08;100434.06;;;6.17;85.56
6144;BME280;3103;49.492;8.474;2024-01-07T08:53:35;100433.03;;;6.18;85.40
6144;BME280;3103;49.492;8.474;2024-01-07T08:56:02;100440.84;;;6.20;85.07
6144;BME280;3103;49.492;8.474;2024-01-07T08:58:29;100440.25;;;6.11;85.23
6144;BME280;3103;49.492;8.474;2024-01-07T09:00:56;100437.56;;;6.11;85.07
6144;BME280;3103;49.492;8.474;2024-01-07T09:03:23;100448.69;;;5.95;85.60
6144;BME280;3103;49.492;8.474;2024-01-07T09:05:49;100455.66;;;6.09;84.05
6144;BME280;3103;49.492;8.474;2024-01-07T09:08:16;100447.84;;;6.08;84.43
6144;BME280;3103;49.492;8.474;2024-01-07T09:10:43;100457.50;;;6.02;83.95
6144;BME280;3103;49.492;8.474;2024-01-07T09:13:10;100461.81;;;5.97;84.46
6144;BME280;3103;49.492;8.474;2024-01-07T09:15:37;100467.56;;;6.07;84.38
6144;BME280;3103;49.492;8.474;2024-01-07T09:18:05;100467.56;;;6.07;84.73
6144;BME280;3103;49.492;8.474;2024-01-07T09:20:32;100467.53;;;6.13;84.96
6144;BME280;3103;49.492;8.474;2024-01-07T09:23:00;100469.19;;;6.08;83.05
6144;BME280;3103;49.492;8.474;2024-01-07T09:25:27;100470.44;;;5.99;83.11
6144;BME280;3103;49.492;8.474;2024-01-07T09:27:54;100473.06;;;6.05;83.61
6144;BME280;3103;49.492;8.474;2024-01-07T09:30:21;100476.59;;;6.06;83.02
6144;BME280;3103;49.492;8.474;2024-01-07T09:32:48;100479.03;;;6.01;82.70
6144;BME280;3103;49.492;8.474;2024-01-07T09:35:15;100475.13;;;6.03;82.60
6144;BME280;3103;49.492;8.474;2024-01-07T09:37:42;100489.50;;;6.09;80.99
6144;BME280;3103;49.492;8.474;2024-01-07T09:40:09;100489.28;;;6.10;80.43
6144;BME280;3103;49.492;8.474;2024-01-07T09:42:37;100485.22;;;5.94;81.79
6144;BME280;3103;49.492;8.474;2024-01-07T09:45:04;100491.56;;;6.07;81.52
6144;BME280;3103;49.492;8.474;2024-01-07T09:47:31;100487.84;;;6.21;81.51
6144;BME280;3103;49.492;8.474;2024-01-07T09:49:59;100484.53;;;6.19;80.36
6144;BME280;3103;49.492;8.474;2024-01-07T09:52:26;100496.22;;;6.18;80.77
6144;BME280;3103;49.492;8.474;2024-01-07T09:54:58;100494.81;;;6.15;80.56
6144;BME280;3103;49.492;8.474;2024-01-07T09:57:26;100496.66;;;6.15;81.02
6144;BME280;3103;49.492;8.474;2024-01-07T09:59:53;100506.69;;;6.26;80.35
6144;BME280;3103;49.492;8.474;2024-01-07T10:02:20;100511.84;;;6.21;79.84
6144;BME280;3103;49.492;8.474;2024-01-07T10:04:48;100501.16;;;6.14;80.28
6144;BME280;3103;49.492;8.474;2024-01-07T10:07:16;100511.44;;;6.24;79.76
6144;BME280;3103;49.492;8.474;2024-01-07T10:09:44;100506.28;;;6.29;79.42
6144;BME280;3103;49.492;8.474;2024-01-07T10:12:11;100506.88;;;6.31;79.82
6144;BME280;3103;49.492;8.474;2024-01-07T10:14:41;100514.66;;;6.39;79.76
6144;BME280;3103;49.492;8.474;2024-01-07T10:17:17;100501.94;;;6.41;78.56
6144;BME280;3103;49.492;8.474;2024-01-07T10:19:45;100507.66;;;6.45;78.69
6144;BME280;3103;49.492;8.474;2024-01-07T10:22:15;100510.97;;;6.40;77.42
6144;BME280;3103;49.492;8.474;2024-01-07T10:24:43;100513.44;;;6.35;76.40
6144;BME280;3103;49.492;8.474;2024-01-07T10:27:10;100514.88;;;6.38;76.83
6144;BME280;3103;49.492;8.474;2024-01-07T10:29:39;100512.38;;;6.49;76.58
6144;BME280;3103;49.492;8.474;2024-01-07T10:32:06;100508.84;;;6.55;76.67
6144;BME280;3103;49.492;8.474;2024-01-07T10:34:35;100513.22;;;6.43;74.05
6144;BME280;3103;49.492;8.474;2024-01-07T10:37:04;100510.53;;;6.43;75.16
6144;BME280;3103;49.492;8.474;2024-01-07T10:39:40;100516.69;;;6.50;75.53
6144;BME280;3103;49.492;8.474;2024-01-07T10:42:07;100520.38;;;6.49;74.40
6144;BME280;3103;49.492;8.474;2024-01-07T10:44:34;100521.00;;;6.51;75.10
6144;BME280;3103;49.492;8.474;2024-01-07T10:47:06;100519.09;;;6.59;73.91
6144;BME280;3103;49.492;8.474;2024-01-07T10:49:38;100526.09;;;6.60;72.43
6144;BME280;3103;49.492;8.474;2024-01-07T10:52:08;100528.13;;;6.64;73.61
6144;BME280;3103;49.492;8.474;2024-01-07T10:54:39;100536.78;;;6.53;73.70
6144;BME280;3103;49.492;8.474;2024-01-07T10:57:13;100540.53;;;6.39;73.76
6144;BME280;3103;49.492;8.474;2024-01-07T10:59:45;100544.00;;;6.52;73.32
6144;BME280;3103;49.492;8.474;2024-01-07T11:02:12;100539.06;;;6.49;72.12
6144;BME280;3103;49.492;8.474;2024-01-07T11:04:51;100541.06;;;6.61;73.93
6144;BME280;3103;49.492;8.474;2024-01-07T11:07:53;100546.78;;;6.77;72.02
6144;BME280;3103;49.492;8.474;2024-01-07T11:10:30;100536.66;;;6.86;72.02
6144;BME280;3103;49.492;8.474;2024-01-07T11:13:08;100534.19;;;6.84;70.28
6144;BME280;3103;49.492;8.474;2024-01-07T11:18:22;100544.13;;;6.71;70.57
6144;BME280;3103;49.492;8.474;2024-01-07T11:20:49;100539.28;;;6.48;69.59
6144;BME280;3103;49.492;8.474;2024-01-07T11:23:33;100538.03;;;6.44;70.05
6144;BME280;3103;49.492;8.474;2024-01-07T11:26:00;100542.59;;;6.30;69.73
6144;BME280;3103;49.492;8.474;2024-01-07T11:31:20;100547.94;;;6.30;69.11
6144;BME280;3103;49.492;8.474;2024-01-07T11:33:50;100547.94;;;6.30;68.85
6144;BME280;3103;49.492;8.474;2024-01-07T11:36:18;100540.50;;;6.45;68.47
6144;BME280;3103;49.492;8.474;2024-01-07T11:38:48;100546.69;;;6.39;68.45
6144;BME280;3103;49.492;8.474;2024-01-07T11:41:20;100545.84;;;6.45;68.83
6144;BME280;3103;49.492;8.474;2024-01-07T11:43:57;100549.13;;;6.54;72.39
6144;BME280;3103;49.492;8.474;2024-01-07T11:46:32;100544.84;;;6.33;69.58
6144;BME280;3103;49.492;8.474;2024-01-07T11:48:59;100548.47;;;6.59;70.29
6144;BME280;3103;49.492;8.474;2024-01-07T11:51:28;100548.69;;;6.64;72.35
6144;BME280;3103;49.492;8.474;2024-01-07T11:54:00;100548.06;;;6.62;69.90
6144;BME280;3103;49.492;8.474;2024-01-07T11:56:28;100551.94;;;6.66;70.19
6144;BME280;3103;49.492;8.474;2024-01-07T11:58:55;100557.84;;;6.74;70.45
6144;BME280;3103;49.492;8.474;2024-01-07T12:01:25;100544.50;;;6.74;68.90
6144;BME280;3103;49.492;8.474;2024-01-07T12:03:55;100556.69;;;6.57;69.26
6144;BME280;3103;49.492;8.474;2024-01-07T12:06:22;100548.28;;;6.47;68.66
6144;BME280;3103;49.492;8.474;2024-01-07T12:08:49;100560.22;;;6.44;67.84
6144;BME280;3103;49.492;8.474;2024-01-07T12:11:18;100557.53;;;6.44;67.96
6144;BME280;3103;49.492;8.474;2024-01-07T12:13:46;100560.25;;;6.38;68.59
6144;BME280;3103;49.492;8.474;2024-01-07T12:16:13;100561.84;;;6.45;70.05
6144;BME280;3103;49.492;8.474;2024-01-07T12:18:40;100568.44;;;6.43;68.86
6144;BME280;3103;49.492;8.474;2024-01-07T12:21:07;100559.44;;;6.24;66.34
6144;BME280;3103;49.492;8.474;2024-01-07T12:23:35;100565.59;;;6.05;65.46
6144;BME280;3103;49.492;8.474;2024-01-07T12:26:10;100567.06;;;5.94;66.34
6144;BME280;3103;49.492;8.474;2024-01-07T12:28:38;100574.81;;;5.89;66.49
6144;BME280;3103;49.492;8.474;2024-01-07T12:31:06;100570.50;;;5.88;67.26
6144;BME280;3103;49.492;8.474;2024-01-07T12:33:33;100575.44;;;5.84;66.93
6144;BME280;3103;49.492;8.474;2024-01-07T12:36:01;100572.97;;;5.76;67.11
6144;BME280;3103;49.492;8.474;2024-01-07T12:38:28;100576.31;;;5.91;67.28
6144;BME280;3103;49.492;8.474;2024-01-07T12:40:56;100578.50;;;5.88;66.93
6144;BME280;3103;49.492;8.474;2024-01-07T12:43:23;100575.47;;;5.78;67.44
6144;BME280;3103;49.492;8.474;2024-01-07T12:45:50;100562.31;;;5.83;67.74
6144;BME280;3103;49.492;8.474;2024-01-07T12:48:17;100575.91;;;5.94;66.57
6144;BME280;3103;49.492;8.474;2024-01-07T12:50:44;100576.25;;;5.85;66.75
6144;BME280;3103;49.492;8.474;2024-01-07T12:53:11;100578.53;;;5.81;67.14
6144;BME280;3103;49.492;8.474;2024-01-07T12:55:38;100590.63;;;5.77;67.11
6144;BME280;3103;49.492;8.474;2024-01-07T12:58:05;100582.44;;;5.79;66.67
6144;BME280;3103;49.492;8.474;2024-01-07T13:00:32;100592.25;;;5.65;65.79
6144;BME280;3103;49.492;8.474;2024-01-07T13:03:00;100601.69;;;5.74;66.43
6144;BME280;3103;49.492;8.474;2024-01-07T13:05:27;100602.31;;;5.70;66.05
6144;BME280;3103;49.492;8.474;2024-01-07T13:07:55;100599.41;;;5.58;66.49
6144;BME280;3103;49.492;8.474;2024-01-07T13:10:22;100607.00;;;5.61;65.39
6144;BME280;3103;49.492;8.474;2024-01-07T13:12:50;100611.31;;;5.69;66.55
6144;BME280;3103;49.492;8.474;2024-01-07T13:15:26;100609.06;;;5.65;65.45
6144;BME280;3103;49.492;8.474;2024-01-07T13:17:53;100617.25;;;5.51;65.53
6144;BME280;3103;49.492;8.474;2024-01-07T13:20:20;100613.75;;;5.50;65.30
6144;BME280;3103;49.492;8.474;2024-01-07T13:22:47;100619.25;;;5.49;64.72
6144;BME280;3103;49.492;8.474;2024-01-07T13:25:14;100618.88;;;5.52;65.34
6144;BME280;3103;49.492;8.474;2024-01-07T13:27:41;100616.22;;;5.52;64.65
6144;BME280;3103;49.492;8.474;2024-01-07T13:30:09;100621.53;;;5.45;64.97